Ide Min — PC8366 — position and weather

sailwx.info

Track history (hours):
 
Tides and Currents Weather Stations Pressure Air Temp Water Temp Dewpoint Dewpoint Depression Visibility Wind Speed Wind Dir Waves Ship Positions

Ide Min (Netherlands)

Ship's website: http://www.idemin.nl/english/english.html

Last reported at 2016-May-06 23:33 UTC. Time now 2016-May-07 00:29 UTC.
Position N 53°33' E 009°59'.

Length 40 m; draft 2.4 m.

MMSI: 244537000.

Date/timePositionNaut miles runAvg speedWind from/ knotsBaromVisibWave heightAir tempDewpointWater temp
2016-May-06 23:33N 53°33' E 009°59'0 0.0
2016-May-06 22:33N 53°33' E 009°59'0 0.0
2016-May-06 21:33N 53°33' E 009°59'1 0.5
2016-May-06 20:33N 53°33' E 009°58'4 3.7
2016-May-06 19:33N 53°33' E 009°52'3 3.1
2016-May-06 18:33N 53°33' E 009°57'1 1.1
2016-May-06 17:33N 53°33' E 009°59'0 0.0
2016-May-06 16:33N 53°33' E 009°59'0 0.0
2016-May-06 15:33N 53°33' E 009°59'0 0.0
2016-May-06 14:33N 53°33' E 009°59'0 0.0
2016-May-06 13:33N 53°33' E 009°59'0 0.0
2016-May-06 12:33N 53°33' E 009°59'0 0.0
2016-May-06 11:33N 53°33' E 009°59'0 0.0
2016-May-06 10:33N 53°33' E 009°59'0 0.0
2016-May-06 09:33N 53°33' E 009°59'0 0.0
2016-May-06 08:33N 53°33' E 009°59'0 0.0
2016-May-06 07:33N 53°33' E 009°59'0 0.0
2016-May-06 06:33N 53°33' E 009°59'0 0.0
2016-May-06 05:33N 53°33' E 009°59'0 0.0
2016-May-06 04:33N 53°33' E 009°59'0 0.0
2016-May-06 03:33N 53°33' E 009°59'0 0.0
2016-May-06 02:33N 53°33' E 009°59'0 0.0
2016-May-06 01:33N 53°33' E 009°59'0 0.0
2016-May-06 00:33N 53°33' E 009°59'0 0.0
2016-May-05 23:33N 53°33' E 009°59'0 0.0
2016-May-05 22:33N 53°33' E 009°59'0 0.0
2016-May-05 21:33N 53°33' E 009°59'2 1.8
2016-May-05 20:33N 53°32' E 009°56'4 3.6
2016-May-05 19:33N 53°33' E 009°50'2 1.6
2016-May-05 18:33N 53°33' E 009°52'4 4.3
2016-May-05 17:33N 53°32' E 009°59'1 0.6
2016-May-05 16:33N 53°33' E 009°59'0 0.0
2016-May-05 15:33N 53°33' E 009°59'0 0.1
2016-May-05 14:33N 53°33' E 009°59'4 4.1
2016-May-05 13:33N 53°33' E 009°52'1 1.3
2016-May-05 12:33N 53°33' E 009°50'2 2.0
2016-May-05 11:33N 53°33' E 009°53'3 2.7
2016-May-05 10:33N 53°33' E 009°58'1 1.4
2016-May-05 09:33N 53°32' E 009°60'1 0.6
2016-May-05 08:33N 53°33' E 009°59'0 0.0
2016-May-05 07:33N 53°33' E 009°59'0 0.0
2016-May-05 06:33N 53°33' E 009°59'0 0.0
2016-May-05 05:33N 53°33' E 009°59'0 0.0
2016-May-05 04:33N 53°33' E 009°59'0 0.0
2016-May-05 03:33N 53°33' E 009°59'0 0.0
2016-May-05 02:33N 53°33' E 009°59'0 0.0
2016-May-05 01:33N 53°33' E 009°59'0 0.0
2016-May-05 00:33N 53°33' E 009°59'0 0.0
2016-May-04 23:33N 53°33' E 009°59'0 0.0
2016-May-04 22:33N 53°33' E 009°59'0 0.0
2016-May-04 21:33N 53°33' E 009°59'0 0.0
2016-May-04 20:33N 53°33' E 009°59'0 0.0
2016-May-04 19:33N 53°33' E 009°59'0 0.0
2016-May-04 18:33N 53°33' E 009°59'0 0.0
2016-May-04 17:33N 53°33' E 009°59'0 0.0
2016-May-04 16:33N 53°33' E 009°59'1 0.0
2016-May-03 13:10N 53°32' E 010°01'1 1.4
2016-May-03 12:34N 53°32' E 009°59'1 0.5
2016-May-03 11:33N 53°33' E 009°59'0 0.0
2016-May-03 10:33N 53°33' E 009°59'0 0.0
2016-May-03 09:33N 53°33' E 009°59'0 0.0
2016-May-02 20:33N 53°33' E 009°59'0 0.0
2016-May-02 19:33N 53°33' E 009°59'0 0.0
2016-May-02 18:33N 53°33' E 009°59'0 0.0
2016-May-02 17:33N 53°33' E 009°59'0 0.0
2016-May-02 16:33N 53°33' E 009°59'0 0.0
2016-May-02 15:33N 53°33' E 009°59'0 0.0
2016-May-02 14:33N 53°33' E 009°59'0 0.0
2016-May-02 13:33N 53°33' E 009°59'0 0.0
2016-May-02 12:33N 53°33' E 009°59'0 0.0
2016-May-02 11:33N 53°33' E 009°59'0 0.0
2016-May-02 10:33N 53°33' E 009°59'0 0.0
2016-May-02 09:33N 53°33' E 009°59'0 0.0
2016-May-02 08:33N 53°33' E 009°59'0 0.0
2016-May-02 07:33N 53°33' E 009°59'0 0.0
2016-May-02 06:33N 53°33' E 009°59'0 0.0
2016-May-02 05:33N 53°33' E 009°59'0 0.0
2016-May-02 04:33N 53°33' E 009°59'0 0.0
2016-May-02 03:33N 53°33' E 009°59'0 0.0
2016-May-02 02:33N 53°33' E 009°59'0 0.0
2016-May-02 01:33N 53°33' E 009°59'0 0.0
2016-May-02 00:34N 53°33' E 009°59'0 0.0
2016-May-01 23:33N 53°33' E 009°59'0 0.0
2016-May-01 22:33N 53°33' E 009°59'4 4.4
2016-May-01 21:33N 53°33' E 009°51'6 6.4
2016-May-01 20:33N 53°34' E 009°41'7 6.8
2016-May-01 19:33N 53°38' E 009°32'8 7.7
2016-May-01 18:33N 53°45' E 009°25'8 7.9
2016-May-01 17:33N 53°51' E 009°18'8 7.9
2016-May-01 16:33N 53°52' E 009°04'10 9.6
2016-May-01 15:33N 53°50' E 008°48'6 6.1
2016-May-01 14:33N 53°54' E 008°41'4 3.7
2016-May-01 13:32N 53°57' E 008°37'5 4.8
2016-May-01 12:32N 53°58' E 008°29'4 4.2
2016-May-01 11:33N 53°59' E 008°22'6 5.9
2016-May-01 10:33N 53°59' E 008°12'6 5.6
2016-May-01 09:33N 53°58' E 008°02'5 5.1
2016-May-01 08:33N 53°57' E 007°54'6 5.5
2016-May-01 07:33N 53°56' E 007°45'5 5.5
2016-May-01 06:33N 53°54' E 007°36'6 5.7
2016-May-01 05:33N 53°53' E 007°27'7 6.6
2016-May-01 04:33N 53°51' E 007°16'8 7.6
2016-May-01 03:33N 53°49' E 007°03'8 7.8
2016-May-01 02:33N 53°48' E 006°50'9 8.7
2016-May-01 01:33N 53°46' E 006°36'9 9.2
2016-May-01 00:33N 53°44' E 006°21'9 8.7
2016-Apr-30 23:33N 53°41' E 006°07'8 8.1
2016-Apr-30 22:33N 53°38' E 005°55'8 7.8
2016-Apr-30 21:33N 53°35' E 005°42'7 7.1
2016-Apr-30 20:33N 53°33' E 005°31'7 6.7
2016-Apr-30 19:33N 53°31' E 005°20'7 6.7
2016-Apr-30 18:33N 53°28' E 005°10'7 6.6
2016-Apr-30 17:32N 53°24' E 005°00'34 6.3
2016-Apr-30 12:05N 52°55' E 004°31'3 6.5
2016-Apr-30 11:33N 52°51' E 004°30'6 6.4
2016-Apr-30 10:33N 52°45' E 004°31'6 6.4
2016-Apr-30 09:33N 52°39' E 004°31'7 6.5
2016-Apr-30 08:33N 52°32' E 004°32'5 4.7
2016-Apr-30 07:33N 52°28' E 004°36'3 2.7
2016-Apr-30 06:33N 52°28' E 004°40'0 0.0
2016-Apr-30 05:30N 52°28' E 004°40'0 0.0
2016-Apr-30 04:33N 52°28' E 004°40'0 0.0
2016-Apr-30 03:33N 52°28' E 004°40'0 0.0
2016-Apr-30 02:33N 52°28' E 004°40'0 0.0
2016-Apr-30 01:33N 52°28' E 004°40'0 0.0
2016-Apr-30 00:33N 52°28' E 004°40'0 0.0
2016-Apr-29 23:33N 52°28' E 004°40'0 0.0
2016-Apr-29 22:33N 52°28' E 004°40'0 0.0
2016-Apr-29 21:33N 52°28' E 004°40'0 0.0
2016-Apr-29 20:33N 52°28' E 004°40'0 0.0
2016-Apr-29 19:33N 52°28' E 004°40'0 0.0
2016-Apr-29 18:33N 52°28' E 004°40'0 0.0
2016-Apr-29 17:33N 52°28' E 004°40'3 3.0
2016-Apr-29 16:34N 52°26' E 004°43'4 4.2
2016-Apr-29 15:33N 52°25' E 004°50'3 2.7
2016-Apr-29 14:31N 52°23' E 004°53'0 0.0
2016-Apr-29 13:31N 52°23' E 004°53'0 0.0
2016-Apr-29 12:31N 52°23' E 004°53'0 0.0
2016-Apr-29 11:31N 52°23' E 004°53'0 0.0
2016-Apr-29 10:31N 52°23' E 004°53'0 0.0
2016-Apr-29 09:31N 52°23' E 004°53'0 0.0
2016-Apr-29 08:31N 52°23' E 004°53'0 0.0
2016-Apr-29 07:31N 52°23' E 004°53'0 0.0
2016-Apr-29 06:31N 52°23' E 004°53'0 0.0
2016-Apr-29 05:31N 52°23' E 004°53'0 0.0
2016-Apr-29 04:31N 52°23' E 004°53'0 0.0
2016-Apr-29 03:31N 52°23' E 004°53'0 0.0
2016-Apr-29 02:31N 52°23' E 004°53'0 0.0
2016-Apr-29 01:31N 52°23' E 004°53'0 0.0
2016-Apr-29 00:31N 52°23' E 004°53'0 0.0
2016-Apr-28 23:31N 52°23' E 004°53'0 0.0
2016-Apr-28 22:31N 52°23' E 004°53'0 0.0
2016-Apr-28 21:31N 52°23' E 004°53'0 0.0
2016-Apr-28 20:31N 52°23' E 004°53'0 0.0
2016-Apr-28 19:31N 52°23' E 004°53'0 0.0
2016-Apr-28 18:31N 52°23' E 004°53'0 0.0
2016-Apr-28 17:31N 52°23' E 004°53'0 0.0
2016-Apr-28 16:31N 52°23' E 004°53'0 0.0
2016-Apr-28 15:31N 52°23' E 004°53'0 0.0
2016-Apr-28 14:31N 52°23' E 004°53'0 0.0
2016-Apr-28 13:31N 52°23' E 004°53'0 0.0
2016-Apr-28 12:31N 52°23' E 004°53'0 0.0
2016-Apr-28 11:31N 52°23' E 004°53'0 0.0
2016-Apr-28 10:31N 52°23' E 004°53'0 0.0
2016-Apr-28 09:31N 52°23' E 004°53'0 0.0
2016-Apr-28 08:31N 52°23' E 004°53'0 0.0
2016-Apr-28 07:31N 52°23' E 004°53'0 0.0
2016-Apr-28 06:31N 52°23' E 004°53'0 0.0
2016-Apr-28 05:31N 52°23' E 004°53'0 0.0
2016-Apr-28 04:31N 52°23' E 004°53'0 0.0
2016-Apr-28 03:31N 52°23' E 004°53'0 0.0
2016-Apr-28 02:31N 52°23' E 004°53'0 0.0
2016-Apr-28 01:31N 52°23' E 004°53'0 0.0
2016-Apr-28 00:31N 52°23' E 004°53'0 0.0
2016-Apr-27 23:31N 52°23' E 004°53'0 0.0
2016-Apr-27 22:31N 52°23' E 004°53'0 0.0
2016-Apr-27 21:31N 52°23' E 004°53'0 0.0
2016-Apr-27 20:31N 52°23' E 004°53'0 0.0
2016-Apr-27 19:31N 52°23' E 004°53'0 0.0
2016-Apr-27 18:31N 52°23' E 004°53'0 0.0
2016-Apr-27 17:31N 52°23' E 004°53'0 0.0
2016-Apr-27 16:31N 52°23' E 004°53'0 0.0
2016-Apr-27 15:31N 52°23' E 004°53'0 0.0
2016-Apr-27 14:31N 52°23' E 004°53'0 0.0
2016-Apr-27 13:31N 52°23' E 004°53'0 0.0
2016-Apr-27 12:31N 52°23' E 004°53'0 0.0
2016-Apr-27 11:31N 52°23' E 004°53'0 0.0
2016-Apr-27 10:31N 52°23' E 004°53'0 0.0
2016-Apr-27 09:31N 52°23' E 004°53'0 0.0
2016-Apr-27 08:31N 52°23' E 004°53'0 0.0
2016-Apr-27 07:31N 52°23' E 004°53'0 0.0
2016-Apr-27 06:31N 52°23' E 004°53'0 0.0
2016-Apr-27 05:31N 52°23' E 004°53'0 0.0
2016-Apr-27 04:28N 52°23' E 004°53'0 0.0
2016-Apr-27 03:31N 52°23' E 004°53'0 0.0
2016-Apr-27 02:31N 52°23' E 004°53'0 0.0
2016-Apr-27 01:31N 52°23' E 004°53'0 0.0
2016-Apr-27 00:31N 52°23' E 004°53'  
Track history (hours):
 
Tides and Currents Weather Stations Pressure Air Temp Water Temp Dewpoint Dewpoint Depression Visibility Wind Speed Wind Dir Waves Ship Positions

Ide Min (Netherlands)

Ship's website: http://www.idemin.nl/english/english.html

Last reported at 2016-May-06 23:33 UTC. Time now 2016-May-07 00:29 UTC.
Position N 53°33' E 009°59'.

Length 40 m; draft 2.4 m.

MMSI: 244537000.

Date/timePositionNaut miles runAvg speedWind from/ knotsBaromVisibWave heightAir tempDewpointWater temp
2016-May-06 23:33N 53°33' E 009°59'0 0.0
2016-May-06 22:33N 53°33' E 009°59'0 0.0
2016-May-06 21:33N 53°33' E 009°59'1 0.5
2016-May-06 20:33N 53°33' E 009°58'4 3.7
2016-May-06 19:33N 53°33' E 009°52'3 3.1
2016-May-06 18:33N 53°33' E 009°57'1 1.1
2016-May-06 17:33N 53°33' E 009°59'0 0.0
2016-May-06 16:33N 53°33' E 009°59'0 0.0
2016-May-06 15:33N 53°33' E 009°59'0 0.0
2016-May-06 14:33N 53°33' E 009°59'0 0.0
2016-May-06 13:33N 53°33' E 009°59'0 0.0
2016-May-06 12:33N 53°33' E 009°59'0 0.0
2016-May-06 11:33N 53°33' E 009°59'0 0.0
2016-May-06 10:33N 53°33' E 009°59'0 0.0
2016-May-06 09:33N 53°33' E 009°59'0 0.0
2016-May-06 08:33N 53°33' E 009°59'0 0.0
2016-May-06 07:33N 53°33' E 009°59'0 0.0
2016-May-06 06:33N 53°33' E 009°59'0 0.0
2016-May-06 05:33N 53°33' E 009°59'0 0.0
2016-May-06 04:33N 53°33' E 009°59'0 0.0
2016-May-06 03:33N 53°33' E 009°59'0 0.0
2016-May-06 02:33N 53°33' E 009°59'0 0.0
2016-May-06 01:33N 53°33' E 009°59'0 0.0
2016-May-06 00:33N 53°33' E 009°59'0 0.0
2016-May-05 23:33N 53°33' E 009°59'0 0.0
2016-May-05 22:33N 53°33' E 009°59'0 0.0
2016-May-05 21:33N 53°33' E 009°59'2 1.8
2016-May-05 20:33N 53°32' E 009°56'4 3.6
2016-May-05 19:33N 53°33' E 009°50'2 1.6
2016-May-05 18:33N 53°33' E 009°52'4 4.3
2016-May-05 17:33N 53°32' E 009°59'1 0.6
2016-May-05 16:33N 53°33' E 009°59'0 0.0
2016-May-05 15:33N 53°33' E 009°59'0 0.1
2016-May-05 14:33N 53°33' E 009°59'4 4.1
2016-May-05 13:33N 53°33' E 009°52'1 1.3
2016-May-05 12:33N 53°33' E 009°50'2 2.0
2016-May-05 11:33N 53°33' E 009°53'3 2.7
2016-May-05 10:33N 53°33' E 009°58'1 1.4
2016-May-05 09:33N 53°32' E 009°60'1 0.6
2016-May-05 08:33N 53°33' E 009°59'0 0.0
2016-May-05 07:33N 53°33' E 009°59'0 0.0
2016-May-05 06:33N 53°33' E 009°59'0 0.0
2016-May-05 05:33N 53°33' E 009°59'0 0.0
2016-May-05 04:33N 53°33' E 009°59'0 0.0
2016-May-05 03:33N 53°33' E 009°59'0 0.0
2016-May-05 02:33N 53°33' E 009°59'0 0.0
2016-May-05 01:33N 53°33' E 009°59'0 0.0
2016-May-05 00:33N 53°33' E 009°59'0 0.0
2016-May-04 23:33N 53°33' E 009°59'0 0.0
2016-May-04 22:33N 53°33' E 009°59'0 0.0
2016-May-04 21:33N 53°33' E 009°59'0 0.0
2016-May-04 20:33N 53°33' E 009°59'0 0.0
2016-May-04 19:33N 53°33' E 009°59'0 0.0
2016-May-04 18:33N 53°33' E 009°59'0 0.0
2016-May-04 17:33N 53°33' E 009°59'0 0.0
2016-May-04 16:33N 53°33' E 009°59'1 0.0
2016-May-03 13:10N 53°32' E 010°01'1 1.4
2016-May-03 12:34N 53°32' E 009°59'1 0.5
2016-May-03 11:33N 53°33' E 009°59'0 0.0
2016-May-03 10:33N 53°33' E 009°59'0 0.0
2016-May-03 09:33N 53°33' E 009°59'0 0.0
2016-May-02 20:33N 53°33' E 009°59'0 0.0
2016-May-02 19:33N 53°33' E 009°59'0 0.0
2016-May-02 18:33N 53°33' E 009°59'0 0.0
2016-May-02 17:33N 53°33' E 009°59'0 0.0
2016-May-02 16:33N 53°33' E 009°59'0 0.0
2016-May-02 15:33N 53°33' E 009°59'0 0.0
2016-May-02 14:33N 53°33' E 009°59'0 0.0
2016-May-02 13:33N 53°33' E 009°59'0 0.0
2016-May-02 12:33N 53°33' E 009°59'0 0.0
2016-May-02 11:33N 53°33' E 009°59'0 0.0
2016-May-02 10:33N 53°33' E 009°59'0 0.0
2016-May-02 09:33N 53°33' E 009°59'0 0.0
2016-May-02 08:33N 53°33' E 009°59'0 0.0
2016-May-02 07:33N 53°33' E 009°59'0 0.0
2016-May-02 06:33N 53°33' E 009°59'0 0.0
2016-May-02 05:33N 53°33' E 009°59'0 0.0
2016-May-02 04:33N 53°33' E 009°59'0 0.0
2016-May-02 03:33N 53°33' E 009°59'0 0.0
2016-May-02 02:33N 53°33' E 009°59'0 0.0
2016-May-02 01:33N 53°33' E 009°59'0 0.0
2016-May-02 00:34N 53°33' E 009°59'0 0.0
2016-May-01 23:33N 53°33' E 009°59'0 0.0
2016-May-01 22:33N 53°33' E 009°59'4 4.4
2016-May-01 21:33N 53°33' E 009°51'6 6.4
2016-May-01 20:33N 53°34' E 009°41'7 6.8
2016-May-01 19:33N 53°38' E 009°32'8 7.7
2016-May-01 18:33N 53°45' E 009°25'8 7.9
2016-May-01 17:33N 53°51' E 009°18'8 7.9
2016-May-01 16:33N 53°52' E 009°04'10 9.6
2016-May-01 15:33N 53°50' E 008°48'6 6.1
2016-May-01 14:33N 53°54' E 008°41'4 3.7
2016-May-01 13:32N 53°57' E 008°37'5 4.8
2016-May-01 12:32N 53°58' E 008°29'4 4.2
2016-May-01 11:33N 53°59' E 008°22'6 5.9
2016-May-01 10:33N 53°59' E 008°12'6 5.6
2016-May-01 09:33N 53°58' E 008°02'5 5.1
2016-May-01 08:33N 53°57' E 007°54'6 5.5
2016-May-01 07:33N 53°56' E 007°45'5 5.5
2016-May-01 06:33N 53°54' E 007°36'6 5.7
2016-May-01 05:33N 53°53' E 007°27'7 6.6
2016-May-01 04:33N 53°51' E 007°16'8 7.6
2016-May-01 03:33N 53°49' E 007°03'8 7.8
2016-May-01 02:33N 53°48' E 006°50'9 8.7
2016-May-01 01:33N 53°46' E 006°36'9 9.2
2016-May-01 00:33N 53°44' E 006°21'9 8.7
2016-Apr-30 23:33N 53°41' E 006°07'8 8.1
2016-Apr-30 22:33N 53°38' E 005°55'8 7.8
2016-Apr-30 21:33N 53°35' E 005°42'7 7.1
2016-Apr-30 20:33N 53°33' E 005°31'7 6.7
2016-Apr-30 19:33N 53°31' E 005°20'7 6.7
2016-Apr-30 18:33N 53°28' E 005°10'7 6.6
2016-Apr-30 17:32N 53°24' E 005°00'34 6.3
2016-Apr-30 12:05N 52°55' E 004°31'3 6.5
2016-Apr-30 11:33N 52°51' E 004°30'6 6.4
2016-Apr-30 10:33N 52°45' E 004°31'6 6.4
2016-Apr-30 09:33N 52°39' E 004°31'7 6.5
2016-Apr-30 08:33N 52°32' E 004°32'5 4.7
2016-Apr-30 07:33N 52°28' E 004°36'3 2.7
2016-Apr-30 06:33N 52°28' E 004°40'0 0.0
2016-Apr-30 05:30N 52°28' E 004°40'0 0.0
2016-Apr-30 04:33N 52°28' E 004°40'0 0.0
2016-Apr-30 03:33N 52°28' E 004°40'0 0.0
2016-Apr-30 02:33N 52°28' E 004°40'0 0.0
2016-Apr-30 01:33N 52°28' E 004°40'0 0.0
2016-Apr-30 00:33N 52°28' E 004°40'0 0.0
2016-Apr-29 23:33N 52°28' E 004°40'0 0.0
2016-Apr-29 22:33N 52°28' E 004°40'0 0.0
2016-Apr-29 21:33N 52°28' E 004°40'0 0.0
2016-Apr-29 20:33N 52°28' E 004°40'0 0.0
2016-Apr-29 19:33N 52°28' E 004°40'0 0.0
2016-Apr-29 18:33N 52°28' E 004°40'0 0.0
2016-Apr-29 17:33N 52°28' E 004°40'3 3.0
2016-Apr-29 16:34N 52°26' E 004°43'4 4.2
2016-Apr-29 15:33N 52°25' E 004°50'3 2.7
2016-Apr-29 14:31N 52°23' E 004°53'0 0.0
2016-Apr-29 13:31N 52°23' E 004°53'0 0.0
2016-Apr-29 12:31N 52°23' E 004°53'0 0.0
2016-Apr-29 11:31N 52°23' E 004°53'0 0.0
2016-Apr-29 10:31N 52°23' E 004°53'0 0.0
2016-Apr-29 09:31N 52°23' E 004°53'0 0.0
2016-Apr-29 08:31N 52°23' E 004°53'0 0.0
2016-Apr-29 07:31N 52°23' E 004°53'0 0.0
2016-Apr-29 06:31N 52°23' E 004°53'0 0.0
2016-Apr-29 05:31N 52°23' E 004°53'0 0.0
2016-Apr-29 04:31N 52°23' E 004°53'0 0.0
2016-Apr-29 03:31N 52°23' E 004°53'0 0.0
2016-Apr-29 02:31N 52°23' E 004°53'0 0.0
2016-Apr-29 01:31N 52°23' E 004°53'0 0.0
2016-Apr-29 00:31N 52°23' E 004°53'0 0.0
2016-Apr-28 23:31N 52°23' E 004°53'0 0.0
2016-Apr-28 22:31N 52°23' E 004°53'0 0.0
2016-Apr-28 21:31N 52°23' E 004°53'0 0.0
2016-Apr-28 20:31N 52°23' E 004°53'0 0.0
2016-Apr-28 19:31N 52°23' E 004°53'0 0.0
2016-Apr-28 18:31N 52°23' E 004°53'0 0.0
2016-Apr-28 17:31N 52°23' E 004°53'0 0.0
2016-Apr-28 16:31N 52°23' E 004°53'0 0.0
2016-Apr-28 15:31N 52°23' E 004°53'0 0.0
2016-Apr-28 14:31N 52°23' E 004°53'0 0.0
2016-Apr-28 13:31N 52°23' E 004°53'0 0.0
2016-Apr-28 12:31N 52°23' E 004°53'0 0.0
2016-Apr-28 11:31N 52°23' E 004°53'0 0.0
2016-Apr-28 10:31N 52°23' E 004°53'0 0.0
2016-Apr-28 09:31N 52°23' E 004°53'0 0.0
2016-Apr-28 08:31N 52°23' E 004°53'0 0.0
2016-Apr-28 07:31N 52°23' E 004°53'0 0.0
2016-Apr-28 06:31N 52°23' E 004°53'0 0.0
2016-Apr-28 05:31N 52°23' E 004°53'0 0.0
2016-Apr-28 04:31N 52°23' E 004°53'0 0.0
2016-Apr-28 03:31N 52°23' E 004°53'0 0.0
2016-Apr-28 02:31N 52°23' E 004°53'0 0.0
2016-Apr-28 01:31N 52°23' E 004°53'0 0.0
2016-Apr-28 00:31N 52°23' E 004°53'0 0.0
2016-Apr-27 23:31N 52°23' E 004°53'0 0.0
2016-Apr-27 22:31N 52°23' E 004°53'0 0.0
2016-Apr-27 21:31N 52°23' E 004°53'0 0.0
2016-Apr-27 20:31N 52°23' E 004°53'0 0.0
2016-Apr-27 19:31N 52°23' E 004°53'0 0.0
2016-Apr-27 18:31N 52°23' E 004°53'0 0.0
2016-Apr-27 17:31N 52°23' E 004°53'0 0.0
2016-Apr-27 16:31N 52°23' E 004°53'0 0.0
2016-Apr-27 15:31N 52°23' E 004°53'0 0.0
2016-Apr-27 14:31N 52°23' E 004°53'0 0.0
2016-Apr-27 13:31N 52°23' E 004°53'0 0.0
2016-Apr-27 12:31N 52°23' E 004°53'0 0.0
2016-Apr-27 11:31N 52°23' E 004°53'0 0.0
2016-Apr-27 10:31N 52°23' E 004°53'0 0.0
2016-Apr-27 09:31N 52°23' E 004°53'0 0.0
2016-Apr-27 08:31N 52°23' E 004°53'0 0.0
2016-Apr-27 07:31N 52°23' E 004°53'0 0.0
2016-Apr-27 06:31N 52°23' E 004°53'0 0.0
2016-Apr-27 05:31N 52°23' E 004°53'0 0.0
2016-Apr-27 04:28N 52°23' E 004°53'0 0.0
2016-Apr-27 03:31N 52°23' E 004°53'0 0.0
2016-Apr-27 02:31N 52°23' E 004°53'0 0.0
2016-Apr-27 01:31N 52°23' E 004°53'0 0.0
2016-Apr-27 00:31N 52°23' E 004°53'  

Dump ship's entire track history